createdAt,value
2022-08-26T00:01:53.880Z,23.46
2022-08-26T00:04:22.071Z,23.51
2022-08-26T00:06:49.436Z,23.67
2022-08-26T00:09:16.860Z,23.67
2022-08-26T00:11:45.473Z,23.55
2022-08-26T00:14:14.090Z,23.60
2022-08-26T00:16:48.199Z,23.63
2022-08-26T00:19:20.752Z,23.43
2022-08-26T00:21:49.844Z,23.22
2022-08-26T00:24:22.037Z,23.06
2022-08-26T00:26:49.831Z,23.19
2022-08-26T00:29:17.713Z,23.28
2022-08-26T00:31:45.659Z,23.31
2022-08-26T00:34:15.337Z,23.46
2022-08-26T00:36:43.033Z,23.39
2022-08-26T00:39:11.578Z,23.26
2022-08-26T00:41:40.760Z,23.19
2022-08-26T00:44:11.320Z,23.14
2022-08-26T00:46:46.955Z,23.12
2022-08-26T00:49:42.344Z,23.20
2022-08-26T00:52:14.770Z,23.26
2022-08-26T00:54:49.765Z,23.29
2022-08-26T00:57:18.780Z,23.14
2022-08-26T00:59:51.079Z,23.19
2022-08-26T01:02:19.963Z,23.24
2022-08-26T01:04:50.089Z,23.01
2022-08-26T01:07:24.890Z,22.86
2022-08-26T01:09:52.351Z,22.66
2022-08-26T01:12:22.048Z,22.47
2022-08-26T01:14:50.314Z,22.58
2022-08-26T01:17:17.736Z,22.58
2022-08-26T01:20:02.939Z,22.57
2022-08-26T01:23:05.158Z,22.49
2022-08-26T01:25:33.786Z,22.40
2022-08-26T01:28:05.879Z,22.38
2022-08-26T01:30:35.687Z,22.54
2022-08-26T01:33:07.014Z,22.58
2022-08-26T01:35:34.450Z,22.54
2022-08-26T01:38:02.518Z,22.62
2022-08-26T01:40:34.525Z,22.96
2022-08-26T01:43:03.978Z,22.93
2022-08-26T01:45:33.993Z,23.01
2022-08-26T01:48:05.271Z,22.89
2022-08-26T01:50:35.399Z,22.91
2022-08-26T01:53:07.834Z,22.86
2022-08-26T01:55:39.295Z,22.54
2022-08-26T01:58:14.130Z,22.22
2022-08-26T02:00:41.059Z,22.15
2022-08-26T02:03:18.229Z,22.33
2022-08-26T02:06:00.254Z,22.58
2022-08-26T02:08:55.656Z,22.49
2022-08-26T02:11:22.733Z,22.65
2022-08-26T02:13:54.760Z,22.67
2022-08-26T02:16:24.775Z,22.41
2022-08-26T02:18:53.449Z,22.18
2022-08-26T02:21:20.647Z,22.31
2022-08-26T02:26:19.303Z,22.61
2022-08-26T02:29:04.145Z,22.62
2022-08-26T02:31:31.425Z,22.49
2022-08-26T02:34:13.773Z,22.50
2022-08-26T02:36:42.557Z,22.54
2022-08-26T02:39:10.380Z,22.38
2022-08-26T02:41:45.173Z,22.58
2022-08-26T02:44:13.325Z,22.63
2022-08-26T02:46:41.800Z,22.66
2022-08-26T02:49:14.247Z,22.70
2022-08-26T02:51:41.340Z,22.55
2022-08-26T02:54:10.108Z,22.64
2022-08-26T02:56:37.866Z,22.34
2022-08-26T02:59:04.918Z,22.13
2022-08-26T03:01:34.925Z,22.30
2022-08-26T03:04:04.029Z,22.23
2022-08-26T03:06:31.508Z,22.05
2022-08-26T03:09:00.011Z,22.15
2022-08-26T03:11:32.301Z,22.33
2022-08-26T03:14:01.782Z,22.42
2022-08-26T03:16:35.722Z,22.16
2022-08-26T03:19:05.101Z,22.01
2022-08-26T03:21:32.931Z,22.10
2022-08-26T03:24:00.503Z,22.32
2022-08-26T03:26:28.820Z,22.17
2022-08-26T03:29:15.323Z,22.39
2022-08-26T03:31:43.749Z,22.36
2022-08-26T03:34:14.411Z,22.39
2022-08-26T03:36:41.957Z,22.47
2022-08-26T03:39:10.859Z,22.51
2022-08-26T03:41:37.827Z,22.48
2022-08-26T03:44:06.546Z,22.29
2022-08-26T03:46:33.675Z,21.96
2022-08-26T03:49:02.386Z,21.85
2022-08-26T03:53:59.229Z,21.77
2022-08-26T03:56:27.267Z,22.05
2022-08-26T03:58:54.679Z,22.29
2022-08-26T04:01:21.587Z,22.38
2022-08-26T04:03:58.233Z,22.51
2022-08-26T04:06:38.604Z,22.53
2022-08-26T04:09:13.866Z,22.55
2022-08-26T04:11:43.461Z,22.53
2022-08-26T04:14:17.623Z,22.68
2022-08-26T04:16:47.393Z,22.77
2022-08-26T04:19:15.924Z,22.85
2022-08-26T04:21:43.493Z,22.67
2022-08-26T04:24:12.896Z,22.32
2022-08-26T04:26:42.706Z,22.64
2022-08-26T04:29:21.253Z,22.76
2022-08-26T04:31:55.230Z,22.75
2022-08-26T04:34:27.250Z,22.91
2022-08-26T04:36:56.293Z,22.88
2022-08-26T04:39:23.396Z,22.99
2022-08-26T04:41:54.953Z,23.08
2022-08-26T04:44:22.720Z,23.05
2022-08-26T04:46:51.014Z,22.80
2022-08-26T04:49:18.031Z,22.68
2022-08-26T04:51:46.232Z,22.58
2022-08-26T04:54:14.308Z,22.53
2022-08-26T04:56:45.386Z,22.76
2022-08-26T04:59:16.805Z,23.13
2022-08-26T05:01:48.160Z,23.18
2022-08-26T05:04:16.224Z,22.92
2022-08-26T05:06:46.682Z,22.96
2022-08-26T05:09:15.340Z,23.27
2022-08-26T05:11:42.559Z,23.22
2022-08-26T05:14:09.943Z,23.17
2022-08-26T05:16:37.808Z,22.84
2022-08-26T05:19:08.517Z,22.87
2022-08-26T05:21:36.214Z,23.17
2022-08-26T05:24:04.905Z,22.91
2022-08-26T05:26:32.370Z,23.13
2022-08-26T05:28:59.520Z,23.04
2022-08-26T05:31:29.944Z,23.00
2022-08-26T05:33:58.413Z,22.92
2022-08-26T05:36:28.283Z,23.02
2022-08-26T05:38:56.228Z,23.10
2022-08-26T05:41:34.140Z,23.33
2022-08-26T05:44:06.142Z,23.39
2022-08-26T05:46:34.461Z,23.61
2022-08-26T05:49:01.943Z,23.85
2022-08-26T05:51:30.967Z,23.67
2022-08-26T05:53:58.603Z,23.68
2022-08-26T05:56:27.837Z,23.58
2022-08-26T05:58:58.403Z,23.79
2022-08-26T06:01:27.960Z,23.45
2022-08-26T06:03:59.672Z,23.83
2022-08-26T06:06:34.950Z,24.20
2022-08-26T06:09:05.117Z,24.16
2022-08-26T06:11:33.440Z,24.08
2022-08-26T06:14:04.310Z,23.98
2022-08-26T06:16:34.826Z,24.30
2022-08-26T06:19:10.664Z,24.30
2022-08-26T06:21:41.554Z,24.43
2022-08-26T06:24:30.130Z,24.55
2022-08-26T06:27:01.798Z,24.74
2022-08-26T06:29:31.419Z,24.92
2022-08-26T06:31:58.550Z,25.64
2022-08-26T06:34:29.744Z,26.29
2022-08-26T06:37:01.197Z,27.08
2022-08-26T06:39:30.742Z,27.08
2022-08-26T06:41:59.142Z,27.38
2022-08-26T06:44:26.909Z,27.78
2022-08-26T06:46:54.659Z,27.87
2022-08-26T06:49:26.902Z,27.24
2022-08-26T06:51:58.743Z,26.71
2022-08-26T06:54:26.872Z,27.71
2022-08-26T06:56:54.066Z,28.28
2022-08-26T06:59:21.932Z,28.84
2022-08-26T07:01:49.797Z,28.96
2022-08-26T07:04:22.030Z,28.63
2022-08-26T07:06:52.597Z,28.50
2022-08-26T07:09:21.856Z,28.67
2022-08-26T07:11:49.326Z,28.64
2022-08-26T07:14:17.071Z,28.63
2022-08-26T07:16:49.734Z,28.92
2022-08-26T07:19:29.883Z,29.36
2022-08-26T07:21:57.848Z,30.41
2022-08-26T07:24:24.809Z,30.73
2022-08-26T07:26:59.292Z,30.26
2022-08-26T07:29:26.399Z,29.82
2022-08-26T07:31:53.812Z,30.93
2022-08-26T07:34:24.148Z,30.98
2022-08-26T07:36:51.756Z,31.32
2022-08-26T07:39:19.873Z,31.30
2022-08-26T07:41:48.051Z,30.46
2022-08-26T07:44:15.843Z,30.78
2022-08-26T07:46:44.323Z,30.04
2022-08-26T07:49:20.194Z,30.87
2022-08-26T07:51:47.410Z,31.15
2022-08-26T07:54:14.295Z,30.49
2022-08-26T07:56:41.382Z,30.25
2022-08-26T07:59:14.035Z,30.16
2022-08-26T08:01:44.742Z,29.65
2022-08-26T08:04:17.824Z,29.73
2022-08-26T08:06:45.712Z,30.54
2022-08-26T08:09:16.143Z,30.94
2022-08-26T08:11:44.979Z,31.23
2022-08-26T08:14:12.755Z,31.72
2022-08-26T08:16:45.878Z,31.96
2022-08-26T08:19:15.254Z,30.99
2022-08-26T08:21:43.981Z,30.98
2022-08-26T08:24:11.897Z,31.42
2022-08-26T08:26:39.476Z,31.42
2022-08-26T08:29:08.862Z,31.87
2022-08-26T08:31:56.810Z,31.83
2022-08-26T08:34:28.393Z,32.10
2022-08-26T08:36:57.466Z,32.88
2022-08-26T08:39:25.095Z,33.01
2022-08-26T08:42:23.540Z,32.61
2022-08-26T08:44:52.966Z,32.76
2022-08-26T08:47:29.736Z,31.72
2022-08-26T08:50:03.201Z,31.86
2022-08-26T08:52:35.498Z,32.78
2022-08-26T08:55:10.986Z,32.21
2022-08-26T08:58:16.287Z,31.09
2022-08-26T09:00:54.294Z,32.13
2022-08-26T09:03:40.356Z,32.46
2022-08-26T09:06:17.483Z,32.52
2022-08-26T09:08:50.445Z,32.33
2022-08-26T09:11:20.099Z,31.27
2022-08-26T09:13:51.879Z,31.21
2022-08-26T09:16:32.580Z,31.38
2022-08-26T09:19:23.549Z,31.64
2022-08-26T09:21:58.489Z,31.96
2022-08-26T09:24:28.689Z,31.56
2022-08-26T09:26:58.470Z,31.12
2022-08-26T09:29:27.354Z,31.24
2022-08-26T09:32:21.332Z,31.68
2022-08-26T09:34:56.894Z,32.21
2022-08-26T09:40:36.347Z,32.81
2022-08-26T09:43:22.170Z,32.07
2022-08-26T09:45:59.461Z,30.99
2022-08-26T09:48:36.174Z,30.85
2022-08-26T09:51:30.330Z,30.83
2022-08-26T09:54:00.359Z,31.34
2022-08-26T09:56:32.855Z,31.34
2022-08-26T09:59:01.110Z,31.94
2022-08-26T10:01:38.473Z,31.99
2022-08-26T10:04:22.221Z,31.75
2022-08-26T10:06:57.443Z,31.94
2022-08-26T10:09:26.053Z,32.09
2022-08-26T10:12:03.371Z,32.44
2022-08-26T10:14:34.993Z,31.73
2022-08-26T10:17:11.595Z,31.86
2022-08-26T10:19:55.917Z,31.54
2022-08-26T10:22:27.160Z,31.73
2022-08-26T10:24:57.653Z,31.75
2022-08-26T10:27:51.172Z,31.74
2022-08-26T10:30:24.016Z,31.72
2022-08-26T10:32:56.886Z,32.00
2022-08-26T10:35:24.496Z,31.48
2022-08-26T10:37:57.056Z,30.88
2022-08-26T10:40:45.606Z,30.64
2022-08-26T10:43:22.557Z,30.87
2022-08-26T10:45:57.274Z,30.65
2022-08-26T10:48:37.987Z,31.09
2022-08-26T10:51:06.422Z,31.25
2022-08-26T10:53:56.834Z,30.90
2022-08-26T10:56:57.417Z,30.53
2022-08-26T10:59:44.117Z,30.80
2022-08-26T11:02:25.145Z,30.80
2022-08-26T11:04:58.685Z,30.64
2022-08-26T11:07:36.948Z,30.80
2022-08-26T11:10:14.056Z,30.89
2022-08-26T11:12:42.183Z,31.02
2022-08-26T11:15:13.912Z,31.36
2022-08-26T11:17:44.926Z,31.70
2022-08-26T11:20:41.840Z,31.48
2022-08-26T11:23:22.546Z,31.21
2022-08-26T11:25:57.474Z,31.28
2022-08-26T11:28:48.736Z,31.07
2022-08-26T11:31:18.636Z,31.46
2022-08-26T11:33:49.117Z,31.63
2022-08-26T11:37:01.589Z,31.96
2022-08-26T11:39:36.656Z,31.93
2022-08-26T11:42:20.640Z,31.61
2022-08-26T11:44:49.241Z,31.98
2022-08-26T11:47:25.606Z,31.73
2022-08-26T11:50:11.125Z,31.58
2022-08-26T11:52:37.934Z,32.09
2022-08-26T11:55:07.028Z,32.31
2022-08-26T11:57:40.736Z,31.44
2022-08-26T12:00:14.209Z,31.71
2022-08-26T12:02:42.545Z,31.92
2022-08-26T12:05:10.230Z,31.61
2022-08-26T12:07:38.252Z,31.84
2022-08-26T12:10:10.890Z,32.02
2022-08-26T12:12:42.708Z,31.80
2022-08-26T12:15:14.867Z,32.00
2022-08-26T12:17:42.660Z,31.83
2022-08-26T12:20:24.374Z,32.05
2022-08-26T12:22:51.537Z,31.75
2022-08-26T12:25:24.055Z,31.58
2022-08-26T12:27:54.029Z,32.09
2022-08-26T12:30:26.180Z,32.00
2022-08-26T12:33:21.940Z,32.25
2022-08-26T12:35:54.387Z,32.37
2022-08-26T12:38:25.216Z,32.64
2022-08-26T12:40:52.728Z,32.77
2022-08-26T12:43:39.964Z,32.56
2022-08-26T12:46:09.122Z,32.45
2022-08-26T12:48:38.957Z,32.47
2022-08-26T12:51:25.795Z,32.44
2022-08-26T12:53:54.203Z,32.60
2022-08-26T12:56:39.147Z,33.09
2022-08-26T12:59:17.894Z,33.22
2022-08-26T13:01:45.698Z,32.53
2022-08-26T13:04:36.785Z,32.56
2022-08-26T13:07:26.627Z,33.12
2022-08-26T13:09:56.284Z,33.05
2022-08-26T13:12:24.734Z,32.40
2022-08-26T13:14:51.503Z,32.74
2022-08-26T13:17:18.402Z,33.23
2022-08-26T13:19:45.196Z,33.38
2022-08-26T13:22:13.975Z,32.45
2022-08-26T13:24:42.781Z,32.84
2022-08-26T13:27:12.837Z,32.47
2022-08-26T13:29:40.057Z,33.03
2022-08-26T13:32:09.180Z,32.96
2022-08-26T13:34:37.601Z,32.33
2022-08-26T13:37:05.318Z,32.08
2022-08-26T13:39:32.149Z,32.38
2022-08-26T13:42:00.269Z,32.07
2022-08-26T13:44:27.568Z,32.02
2022-08-26T13:46:57.565Z,32.30
2022-08-26T13:49:24.320Z,31.92
2022-08-26T13:51:51.248Z,31.98
2022-08-26T13:54:18.119Z,31.87
2022-08-26T13:56:45.289Z,32.03
2022-08-26T13:59:12.121Z,32.11
2022-08-26T14:01:40.207Z,32.03
2022-08-26T14:04:07.665Z,32.07
2022-08-26T14:06:34.462Z,32.05
2022-08-26T14:09:01.385Z,32.17
2022-08-26T14:11:29.584Z,31.67
2022-08-26T14:14:06.003Z,30.87
2022-08-26T14:16:36.509Z,29.39
2022-08-26T14:19:18.461Z,29.03
2022-08-26T14:21:51.166Z,28.56
2022-08-26T14:24:18.197Z,28.10
2022-08-26T14:26:44.978Z,27.97
2022-08-26T14:29:14.694Z,26.29
2022-08-26T14:31:43.632Z,25.35
2022-08-26T14:34:13.955Z,25.31
2022-08-26T14:36:40.768Z,25.26
2022-08-26T14:39:10.505Z,24.87
2022-08-26T14:41:45.234Z,24.92
2022-08-26T14:44:24.309Z,25.26
2022-08-26T14:46:52.905Z,25.42
2022-08-26T14:49:22.331Z,25.50
2022-08-26T14:51:49.739Z,25.63
2022-08-26T14:54:18.353Z,25.90
2022-08-26T14:56:49.839Z,26.13
2022-08-26T14:59:20.622Z,26.14
2022-08-26T15:01:48.243Z,26.13
2022-08-26T15:04:16.012Z,25.86
2022-08-26T15:06:43.349Z,25.19
2022-08-26T15:09:10.567Z,25.24
2022-08-26T15:11:37.471Z,25.25
2022-08-26T15:14:04.968Z,25.19
2022-08-26T15:16:32.228Z,24.69
2022-08-26T15:19:00.626Z,24.60
2022-08-26T15:21:27.450Z,24.39
2022-08-26T15:23:54.678Z,24.31
2022-08-26T15:26:23.186Z,24.11
2022-08-26T15:28:51.256Z,23.61
2022-08-26T15:31:18.422Z,23.54
2022-08-26T15:33:45.838Z,23.48
2022-08-26T15:36:13.126Z,23.24
2022-08-26T15:38:42.612Z,23.18
2022-08-26T15:41:10.616Z,22.93
2022-08-26T15:43:38.337Z,23.02
2022-08-26T15:46:10.571Z,23.23
2022-08-26T15:48:38.531Z,23.23
2022-08-26T15:51:07.145Z,23.10
2022-08-26T15:53:35.443Z,23.45
2022-08-26T15:56:03.929Z,23.74
2022-08-26T15:58:30.766Z,23.82
2022-08-26T16:00:57.988Z,24.01
2022-08-26T16:03:25.142Z,24.03
2022-08-26T16:05:52.046Z,24.26
2022-08-26T16:08:19.586Z,24.24
2022-08-26T16:10:50.327Z,24.33
2022-08-26T16:13:20.038Z,24.38
2022-08-26T16:15:49.926Z,24.29
2022-08-26T16:18:17.285Z,24.18
2022-08-26T16:21:12.614Z,24.14
2022-08-26T16:23:38.495Z,24.11
2022-08-26T16:26:14.406Z,24.05
2022-08-26T16:28:41.379Z,24.02
2022-08-26T16:31:11.486Z,24.02
2022-08-26T16:33:38.511Z,23.88
2022-08-26T16:36:07.112Z,23.98
2022-08-26T16:38:34.643Z,24.09
2022-08-26T16:41:02.012Z,24.00
2022-08-26T16:43:29.269Z,24.16
2022-08-26T16:45:56.521Z,24.19
2022-08-26T16:48:23.996Z,24.24
2022-08-26T16:50:51.817Z,24.24
2022-08-26T16:53:19.220Z,24.25
2022-08-26T16:55:48.205Z,24.03
2022-08-26T16:58:15.465Z,23.75
2022-08-26T17:00:42.706Z,23.50
2022-08-26T17:03:10.185Z,23.53
2022-08-26T17:05:37.440Z,23.55
2022-08-26T17:08:05.246Z,23.34
2022-08-26T17:10:33.260Z,23.53
2022-08-26T17:13:00.425Z,23.59
2022-08-26T17:15:27.891Z,23.78
2022-08-26T17:17:55.570Z,23.60
2022-08-26T17:20:24.858Z,23.35
2022-08-26T17:22:54.478Z,23.33
2022-08-26T17:25:31.881Z,23.36
2022-08-26T17:27:59.658Z,23.27
2022-08-26T17:30:26.470Z,22.99
2022-08-26T17:32:54.935Z,22.99
2022-08-26T17:35:22.173Z,23.22
2022-08-26T17:37:49.719Z,23.40
2022-08-26T17:40:19.981Z,23.56
2022-08-26T17:42:48.084Z,23.63
2022-08-26T17:45:15.638Z,23.70
2022-08-26T17:47:42.721Z,23.54
2022-08-26T17:50:13.131Z,23.29
2022-08-26T17:52:41.297Z,23.43
2022-08-26T17:55:10.226Z,22.83
2022-08-26T17:57:40.823Z,23.09
2022-08-26T18:00:12.640Z,23.06
2022-08-26T18:02:40.003Z,22.45
2022-08-26T18:05:08.443Z,22.27
2022-08-26T18:07:44.033Z,22.26
2022-08-26T18:10:15.782Z,22.41
2022-08-26T18:12:43.330Z,22.19
2022-08-26T18:15:11.555Z,22.11
2022-08-26T18:17:41.868Z,22.12
2022-08-26T18:20:11.191Z,22.28
2022-08-26T18:22:38.012Z,22.55
2022-08-26T18:25:06.154Z,22.60
2022-08-26T18:27:33.189Z,22.77
2022-08-26T18:30:00.222Z,22.96
2022-08-26T18:32:27.268Z,22.99
2022-08-26T18:34:54.217Z,23.01
2022-08-26T18:37:21.153Z,23.19
2022-08-26T18:39:48.832Z,22.99
2022-08-26T18:42:15.719Z,23.00
2022-08-26T18:44:42.512Z,23.18
2022-08-26T18:47:09.468Z,23.19
2022-08-26T18:49:36.658Z,23.02
2022-08-26T18:52:04.431Z,22.75
2022-08-26T18:54:31.214Z,22.85
2022-08-26T18:56:58.716Z,23.22
2022-08-26T18:59:29.690Z,23.41
2022-08-26T19:01:58.107Z,23.39
2022-08-26T19:04:25.075Z,23.22
2022-08-26T19:06:52.831Z,23.09
2022-08-26T19:09:20.948Z,23.13
2022-08-26T19:11:49.598Z,23.25
2022-08-26T19:14:17.810Z,22.67
2022-08-26T19:16:48.173Z,22.82
2022-08-26T19:19:16.282Z,22.75
2022-08-26T19:21:43.086Z,22.79
2022-08-26T19:24:15.781Z,22.83
2022-08-26T19:26:45.450Z,22.91
2022-08-26T19:29:13.849Z,23.17
2022-08-26T19:31:42.472Z,23.11
2022-08-26T19:34:11.814Z,23.16
2022-08-26T19:36:39.495Z,23.10
2022-08-26T19:39:12.246Z,23.05
2022-08-26T19:41:40.610Z,23.24
2022-08-26T19:44:34.801Z,23.21
2022-08-26T19:47:03.814Z,23.02
2022-08-26T19:49:31.494Z,22.98
2022-08-26T19:51:58.630Z,23.02
2022-08-26T19:54:25.600Z,23.09
2022-08-26T19:56:52.466Z,22.80
2022-08-26T19:59:19.518Z,22.60
2022-08-26T20:01:46.482Z,22.33
2022-08-26T20:04:28.024Z,22.36
2022-08-26T20:06:58.693Z,22.35
2022-08-26T20:09:28.735Z,22.18
2022-08-26T20:11:56.773Z,22.25
2022-08-26T20:14:25.662Z,22.35
2022-08-26T20:16:53.185Z,22.31
2022-08-26T20:19:38.590Z,22.41
2022-08-26T20:22:06.052Z,22.49
2022-08-26T20:24:33.585Z,22.72
2022-08-26T20:27:06.772Z,23.02
2022-08-26T20:29:35.195Z,22.78
2022-08-26T20:32:02.987Z,22.68
2022-08-26T20:34:30.240Z,22.70
2022-08-26T20:36:57.356Z,22.38
2022-08-26T20:39:24.166Z,22.51
2022-08-26T20:41:51.475Z,22.56
2022-08-26T20:44:18.282Z,22.93
2022-08-26T20:46:45.526Z,22.92
2022-08-26T20:49:13.530Z,22.95
2022-08-26T20:51:41.361Z,22.83
2022-08-26T20:54:08.837Z,22.78
2022-08-26T20:56:35.821Z,23.03
2022-08-26T20:59:05.574Z,23.08
2022-08-26T21:01:34.761Z,23.20
2022-08-26T21:04:05.735Z,23.24
2022-08-26T21:06:34.023Z,23.01
2022-08-26T21:09:01.833Z,23.02
2022-08-26T21:11:29.287Z,22.97
2022-08-26T21:14:07.103Z,22.97
2022-08-26T21:16:43.540Z,22.93
2022-08-26T21:19:13.331Z,23.10
2022-08-26T21:21:41.201Z,23.04
2022-08-26T21:24:08.876Z,23.04
2022-08-26T21:26:35.974Z,23.02
2022-08-26T21:29:03.925Z,22.96
2022-08-26T21:31:32.349Z,22.99
2022-08-26T21:33:59.627Z,23.17
2022-08-26T21:36:27.100Z,23.15
2022-08-26T21:38:57.050Z,23.01
2022-08-26T21:41:25.203Z,22.97
2022-08-26T21:43:55.287Z,22.91
2022-08-26T21:46:24.865Z,22.79
2022-08-26T21:49:03.725Z,22.67
2022-08-26T21:51:35.659Z,22.61
2022-08-26T21:54:10.553Z,22.50
2022-08-26T21:56:45.209Z,22.43
2022-08-26T21:59:13.732Z,22.36
2022-08-26T22:01:40.737Z,22.19
2022-08-26T22:04:09.372Z,22.04
2022-08-26T22:06:43.358Z,21.92
2022-08-26T22:09:11.536Z,21.71
2022-08-26T22:11:38.509Z,21.57
2022-08-26T22:14:05.596Z,21.42
2022-08-26T22:16:32.474Z,21.27
2022-08-26T22:18:59.844Z,21.22
2022-08-26T22:21:28.465Z,21.23
2022-08-26T22:23:58.051Z,21.25
2022-08-26T22:26:28.168Z,21.32
2022-08-26T22:28:58.660Z,21.50
2022-08-26T22:31:37.245Z,21.70
2022-08-26T22:34:12.299Z,21.78
2022-08-26T22:36:43.889Z,21.81
2022-08-26T22:39:14.109Z,21.67
2022-08-26T22:41:43.181Z,21.61
2022-08-26T22:44:11.933Z,21.25
2022-08-26T22:46:40.352Z,21.43
2022-08-26T22:49:09.651Z,21.47
2022-08-26T22:51:36.671Z,21.89
2022-08-26T22:54:04.805Z,21.97
2022-08-26T22:56:31.903Z,21.95
2022-08-26T22:58:58.829Z,21.71
2022-08-26T23:01:25.956Z,21.65
2022-08-26T23:03:53.275Z,21.40
2022-08-26T23:06:20.059Z,21.21
2022-08-26T23:08:47.694Z,21.31
2022-08-26T23:11:15.079Z,21.02
2022-08-26T23:13:42.488Z,21.13
2022-08-26T23:16:12.503Z,21.34
2022-08-26T23:18:41.128Z,21.51
2022-08-26T23:21:08.981Z,21.60
2022-08-26T23:23:36.377Z,21.60
2022-08-26T23:26:05.923Z,21.62
2022-08-26T23:28:34.615Z,21.59
2022-08-26T23:31:01.657Z,21.55
2022-08-26T23:33:48.689Z,21.55
2022-08-26T23:36:17.690Z,21.68
2022-08-26T23:38:52.388Z,21.73
2022-08-26T23:41:22.835Z,21.88
2022-08-26T23:43:50.314Z,22.04
2022-08-26T23:46:18.488Z,22.05
2022-08-26T23:48:45.597Z,21.88
2022-08-26T23:51:31.326Z,21.84
2022-08-26T23:53:58.226Z,21.90
2022-08-26T23:56:26.754Z,21.88
2022-08-26T23:58:54.635Z,21.78
